Northern & Central Napa County

33 Stations

15 Minute Data | America/Los_Angeles
as of 8/31/26 2:58 PM PDT
Station Date Time Temp (°F) RH (%) Dew Pt (°F) Wind Spd (mph) Wind Dir (°) Wind Gust (mph) Latest Rain (In) Daily Rain (In) Daily Max Temp (°F) Daily Min Temp (°F)
Tenma (North Calistoga) 8/31/26 1445 78.3   10.0 - - - - - 0.00 0.00 79.8   9.8 52.7   7.2
Calistoga-Solari 8/31/26 1445 75.2   11.2 45   13 52.6   0.8 5.7   1.5 W | 267 10.6   2.8 0.00 0.00 76.2   10.6 56.2   12.1
Calistoga-North 8/31/26 1445 76.4   14.0 48   15 55.2   2.1 - - - 0.00 0.00 79.4   13.1 56.9   10.8
Twomey Calistoga 8/31/26 1445 79.8   10.7 40   9 53.5   2.1 5.4   2.6 NW | 305 10.8   3.4 0.00 0.00 82.0   8.5 56.9   16.1
Paloma 8/31/26 1445 79.7   10.8 42   10 54.6   2.2 6.2   1.8 ENE | 72 15.6   4.8 0.00 0.00 80.6   10.0 56.7   14.2
Calistoga (Ranch 78) 8/31/26 1445 76.9   8.4 41   5 51.4   3.5 7.2   3.5 NW | 313 12.2   3.4 0.00 0.00 78.1   7.3 56.4   12.8
Diamond Mtn (Schramsberg) 8/31/26 1445 75.1   5.1 44   4 51.5   2.1 - - - 0.00 0.00 75.8   5.0 53.0   0.9
Diamond Mtn (McEachran) 8/31/26 1445 78.0   5.2 42   4 52.8   1.9 - - - - - 78.7   5.0 55.5   3.8
Deer Park 8/31/26 1445 76.5   6.9 43   9 52.7   0.2 4.6   0.0 SSW | 208 10.8   2.4 0.00 0.00 76.7   7.0 54.5   1.7
St. Helena-North 8/31/26 1445 77.0   7.4 40   7 50.7   1.4 5.2   1.3 SSE | 147 11.6   0.2 0.00 0.00 77.8   7.5 56.9   8.6
St. Helena (NVV Office) 8/31/26 1445 77.2   5.1 - - 3.2   0.3 ESE | 116 7.5   0.5 0.00 0.00 77.9   5.4 57.4   8.3
Tiara Fria (East St. Helena) 8/31/26 1445 75.4   5.2 46   5 53.0   1.8 4.5   0.5 SE | 129 8.8   0.3 0.00 0.00 75.8   5.3 57.2   10.4
Prisoner Winery 8/31/26 1445 79.8   3.9 39   2 52.7   1.9 2.9   0.1 ESE | 123 6.4   1.2 0.00 0.00 80.6   4.1 55.9   10.7
Rutherford Hill Estate 8/31/26 1445 74.0   6.8 47   6 52.4   2.1 4.9   1.9 SSE | 158 15.1   7.4 0.00 0.00 75.8   5.7 55.6   4.4
Rutherford-North (Mee Ln) 8/31/26 1445 75.7   4.0 45   3 52.6   1.8 7.0   0.0 SE | 134 14.7   2.0 0.00 0.00 76.4   3.8 54.0   11.2
Rutherford (STS) 8/31/26 1445 79.0   4.0 46   3 56.7   1.6 6.0   1.5 ESE | 118 13.5   2.4 0.00 0.00 79.0   4.1 56.8   13.7
Silver Oak OV 8/31/26 1445 73.4   4.6 48   3 52.2   2.4 8.7   0.2 SE | 135 15.1   0.9 0.00 0.00 74.4   4.4 56.2   12.7
Oakville-NE (Ranch 88) 8/31/26 1445 76.5   4.7 40   2 50.7   2.5 6.3   0.6 SSE | 164 13.3   0.9 0.00 0.00 76.8   4.6 56.9   13.6
Crossroads Ranch 8/31/26 1445 74.8   4.3 50   2 55.1   2.8 8.7   1.1 SE | 144 16.6   1.8 0.00 0.00 75.2   3.9 56.4   11.7
Oakville 8/31/26 1445 73.5   3.8 47   2 51.9   2.2 8.5   0.1 SE | 124 16.4   0.8 0.00 0.00 73.9   4.0 56.2   12.2
To Kalon Remote (TKKE) 8/31/26 1445 75.7   4.6 - - - - - - - 76.4   4.7 57.2   12.2
To Kalon 8/31/26 1445 75.0   3.4 46   2 53.2   1.8 7.7   0.1 ESE | 113 14.9   0.5 0.00 0.00 75.7   3.9 56.7   10.8
To Kalon Remote (TKN5) 8/31/26 1445 76.2   5.2 - - - - - - - 76.8   5.7 57.2   11.6
Jump Rock 8/31/26 1445 69.8   9.2 55   10 53.0   2.9 4.4   0.8 SW | 229 11.3   3.9 0.00 0.00 70.3   9.4 43.9   3.1
State Lane Ranch 8/31/26 1445 74.0   3.6 52   2 55.3   2.3 7.6   0.4 SE | 132 18.6   2.8 0.00 0.00 74.7   4.0 56.3   13.7
Yountville (Ranch 67) 8/31/26 1445 73.5   2.5 45   1 51.0   1.4 7.1   0.2 SE | 126 15.2   0.2 0.00 0.00 73.5   3.3 55.0   11.6
Borreo (Soda Canyon) 8/31/26 1445 71.1   4.2 49   4 50.8   1.5 5.2   2.2 SSE | 160 10.5   3.1 0.00 0.00 71.6   4.7 53.1   6.9
Wappo Hill Floor 8/31/26 1445 75.3   3.6 45   2 52.3   1.7 5.3   1.6 SSE | 156 10.6   0.7 0.00 0.00 75.3   3.6 55.8   12.4
Wappo Hill 8/31/26 1445 74.2   1.9 45   0 51.2   2.0 8.1   0.4 SE | 140 14.0   0.1 0.00 0.00 74.2   2.9 55.3   5.6
Stags Leap Dist (Chimney Rock) 8/31/26 1445 73.6   2.6 52   0 54.8   2.4 5.4   0.5 SSE | 160 12.9   3.3 0.00 0.00 74.0   2.6 55.9   13.1
Stags Leap Dist (Silverado Vineyards) 8/31/26 1445 72.9   3.5 45   1 50.2   2.5 6.6   0.7 SE | 140 12.8   0.9 0.00 0.00 73.5   3.4 55.2   11.7
Yountville-SE (Ranch 85) 8/31/26 1445 73.6   2.1 48   1 52.5   2.7 3.6   2.9 SSW | 208 10.6   0.9 0.00 0.00 74.7   1.6 55.5   10.3
Yountville-South (Ranch 87) 8/31/26 1445 75.5   3.5 44   2 52.1   1.9 4.7   0.9 SSE | 163 14.1   5.5 0.00 0.00 76.0   3.6 55.7   11.3
Max     79.8 55 56.7 8.7 - 18.6 0.00 0.00 82.0 57.4
Avg     75.5 45 52.7 6.0 - 12.8 0.00 - - -
Min     69.8 39 50.2 2.9 - 6.4 0.00 0.00 70.3 43.9